createdAt,value
2022-12-03T00:00:13.554Z,3.63
2022-12-03T00:02:42.761Z,3.47
2022-12-03T00:05:11.927Z,2.97
2022-12-03T00:07:40.586Z,4.50
2022-12-03T00:10:11.893Z,3.97
2022-12-03T00:12:41.226Z,3.40
2022-12-03T00:15:11.797Z,2.97
2022-12-03T00:17:40.400Z,3.50
2022-12-03T00:20:10.882Z,4.20
2022-12-03T00:22:39.467Z,3.30
2022-12-03T00:25:10.692Z,2.80
2022-12-03T00:27:39.229Z,3.70
2022-12-03T00:30:09.344Z,3.87
2022-12-03T00:32:37.866Z,3.77
2022-12-03T00:35:07.168Z,3.17
2022-12-03T00:37:36.049Z,3.00
2022-12-03T00:40:05.230Z,2.70
2022-12-03T00:42:35.165Z,3.13
2022-12-03T00:45:03.694Z,3.23
2022-12-03T00:47:32.448Z,2.97
2022-12-03T00:50:00.950Z,3.20
2022-12-03T00:52:30.326Z,3.47
2022-12-03T00:54:58.801Z,2.20
2022-12-03T00:57:27.341Z,2.10
2022-12-03T00:59:57.264Z,2.57
2022-12-03T01:02:26.769Z,2.80
2022-12-03T01:04:55.579Z,2.40
2022-12-03T01:07:24.400Z,2.77
2022-12-03T01:09:52.918Z,2.50
2022-12-03T01:12:21.510Z,2.60
2022-12-03T01:14:50.217Z,2.43
2022-12-03T01:17:20.192Z,2.63
2022-12-03T01:19:48.809Z,2.57
2022-12-03T01:22:17.334Z,2.20
2022-12-03T01:24:45.839Z,2.20
2022-12-03T01:27:14.338Z,2.83
2022-12-03T01:29:42.752Z,2.70
2022-12-03T01:32:19.951Z,2.73
2022-12-03T01:34:51.603Z,3.60
2022-12-03T01:37:22.186Z,3.10
2022-12-03T01:39:50.943Z,3.43
2022-12-03T01:42:22.512Z,3.33
2022-12-03T01:44:54.015Z,2.40
2022-12-03T01:47:26.334Z,3.20
2022-12-03T01:50:01.273Z,2.70
2022-12-03T01:52:33.528Z,2.47
2022-12-03T01:55:06.217Z,2.70
2022-12-03T01:57:41.093Z,3.03
2022-12-03T02:00:14.504Z,2.53
2022-12-03T02:02:43.172Z,3.10
2022-12-03T02:05:20.573Z,2.13
2022-12-03T02:07:49.468Z,2.80
2022-12-03T02:10:20.089Z,2.60
2022-12-03T02:12:52.386Z,2.70
2022-12-03T02:15:21.161Z,2.83
2022-12-03T02:17:49.870Z,2.60
2022-12-03T02:20:20.182Z,2.57
2022-12-03T02:22:59.136Z,2.50
2022-12-03T02:25:32.211Z,2.93
2022-12-03T02:28:02.035Z,2.83
2022-12-03T02:30:32.284Z,2.87
2022-12-03T02:33:01.133Z,2.97
2022-12-03T02:35:34.194Z,2.73
2022-12-03T02:38:09.669Z,2.87
2022-12-03T02:40:40.276Z,2.87
2022-12-03T02:43:07.911Z,2.77
2022-12-03T02:45:38.290Z,2.50
2022-12-03T02:48:10.879Z,3.40
2022-12-03T02:50:42.507Z,2.90
2022-12-03T02:53:15.696Z,2.50
2022-12-03T02:55:46.332Z,3.47
2022-12-03T02:58:15.598Z,3.07
2022-12-03T03:00:45.319Z,2.87
2022-12-03T03:03:14.402Z,2.83
2022-12-03T03:05:43.267Z,3.37
2022-12-03T03:08:12.852Z,2.90
2022-12-03T03:10:42.809Z,2.87
2022-12-03T03:13:14.395Z,2.60
2022-12-03T03:15:44.259Z,2.43
2022-12-03T03:18:14.424Z,2.77
2022-12-03T03:20:43.855Z,2.47
2022-12-03T03:23:17.729Z,2.63
2022-12-03T03:25:48.955Z,2.50
2022-12-03T03:28:19.761Z,2.70
2022-12-03T03:30:48.552Z,2.60
2022-12-03T03:33:17.875Z,3.03
2022-12-03T03:35:47.777Z,2.53
2022-12-03T03:38:16.914Z,3.10
2022-12-03T03:40:45.876Z,2.80
2022-12-03T03:43:15.855Z,3.40
2022-12-03T03:45:46.902Z,3.43
2022-12-03T03:48:16.219Z,3.40
2022-12-03T03:50:45.837Z,3.33
2022-12-03T03:53:15.205Z,2.70
2022-12-03T03:55:44.469Z,3.53
2022-12-03T03:58:13.092Z,3.30
2022-12-03T04:00:43.226Z,3.37
2022-12-03T04:03:14.602Z,3.37
2022-12-03T04:05:43.154Z,3.40
2022-12-03T04:08:11.747Z,3.90
2022-12-03T04:10:57.435Z,3.37
2022-12-03T04:13:26.049Z,2.90
2022-12-03T04:15:54.858Z,2.67
2022-12-03T04:18:42.122Z,2.80
2022-12-03T04:21:28.460Z,2.80
2022-12-03T04:23:57.152Z,2.83
2022-12-03T04:26:43.315Z,2.53
2022-12-03T04:29:12.098Z,3.00
2022-12-03T04:31:57.938Z,2.90
2022-12-03T04:34:45.617Z,2.63
2022-12-03T04:37:14.279Z,2.87
2022-12-03T04:39:43.159Z,2.70
2022-12-03T04:42:11.846Z,2.57
2022-12-03T04:44:40.498Z,2.90
2022-12-03T04:47:11.699Z,2.80
2022-12-03T04:49:43.853Z,2.90
2022-12-03T04:52:13.402Z,2.70
2022-12-03T04:54:42.282Z,2.40
2022-12-03T04:57:11.781Z,2.73
2022-12-03T04:59:40.331Z,2.50
2022-12-03T05:02:09.413Z,2.33
2022-12-03T05:04:38.044Z,2.53
2022-12-03T05:07:08.098Z,2.33
2022-12-03T05:09:36.698Z,2.67
2022-12-03T05:12:05.643Z,2.60
2022-12-03T05:14:34.205Z,2.70
2022-12-03T05:17:02.852Z,2.63
2022-12-03T05:19:45.313Z,2.17
2022-12-03T05:22:15.442Z,2.53
2022-12-03T05:24:44.012Z,2.70
2022-12-03T05:27:12.568Z,3.40
2022-12-03T05:29:41.166Z,2.73
2022-12-03T05:32:09.789Z,4.10
2022-12-03T05:34:38.347Z,3.70
2022-12-03T05:37:06.964Z,2.57
2022-12-03T05:39:37.976Z,2.93
2022-12-03T05:42:29.706Z,2.90
2022-12-03T05:44:58.271Z,3.40
2022-12-03T05:47:26.854Z,3.47
2022-12-03T05:49:55.518Z,3.30
2022-12-03T05:52:24.129Z,2.47
2022-12-03T05:54:54.309Z,2.80
2022-12-03T05:57:23.018Z,2.93
2022-12-03T05:59:51.563Z,2.70
2022-12-03T06:02:20.589Z,3.03
2022-12-03T06:04:49.365Z,2.83
2022-12-03T06:07:17.884Z,2.90
2022-12-03T06:09:46.344Z,3.07
2022-12-03T06:12:16.374Z,2.77
2022-12-03T06:14:45.041Z,2.80
2022-12-03T06:17:13.582Z,3.17
2022-12-03T06:19:43.077Z,3.00
2022-12-03T06:22:13.387Z,3.57
2022-12-03T06:24:42.229Z,4.53
2022-12-03T06:27:10.820Z,3.63
2022-12-03T06:29:41.057Z,11.80
2022-12-03T06:32:09.910Z,3.03
2022-12-03T06:34:38.873Z,4.40
2022-12-03T06:37:07.492Z,3.73
2022-12-03T06:39:36.177Z,2.90
2022-12-03T06:42:04.907Z,2.80
2022-12-03T06:44:33.500Z,2.63
2022-12-03T06:47:04.454Z,2.80
2022-12-03T06:49:33.128Z,2.83
2022-12-03T06:52:01.648Z,2.87
2022-12-03T06:54:30.293Z,3.60
2022-12-03T06:56:58.855Z,3.13
2022-12-03T06:59:28.281Z,3.63
2022-12-03T07:01:56.916Z,2.90
2022-12-03T07:04:26.967Z,3.50
2022-12-03T07:06:55.721Z,2.87
2022-12-03T07:09:24.401Z,3.27
2022-12-03T07:11:53.591Z,3.53
2022-12-03T07:14:22.110Z,3.30
2022-12-03T07:16:50.647Z,2.90
2022-12-03T07:19:19.174Z,3.33
2022-12-03T07:21:49.086Z,2.50
2022-12-03T07:24:17.651Z,2.90
2022-12-03T07:26:46.163Z,3.10
2022-12-03T07:29:14.832Z,2.87
2022-12-03T07:31:43.409Z,3.30
2022-12-03T07:34:12.034Z,2.67
2022-12-03T07:36:40.567Z,3.10
2022-12-03T07:39:11.364Z,3.10
2022-12-03T07:41:39.971Z,2.67
2022-12-03T07:44:14.010Z,2.90
2022-12-03T07:46:43.780Z,2.83
2022-12-03T07:49:13.479Z,2.40
2022-12-03T07:51:43.052Z,2.63
2022-12-03T07:54:13.005Z,2.83
2022-12-03T07:56:42.675Z,2.53
2022-12-03T07:59:11.191Z,2.83
2022-12-03T08:01:40.053Z,2.53
2022-12-03T08:04:08.735Z,2.33
2022-12-03T08:06:39.008Z,2.50
2022-12-03T08:09:09.922Z,2.37
2022-12-03T08:11:45.283Z,2.30
2022-12-03T08:14:15.536Z,2.27
2022-12-03T08:16:46.505Z,2.50
2022-12-03T08:19:17.722Z,2.53
2022-12-03T08:21:46.946Z,3.50
2022-12-03T08:24:17.255Z,2.40
2022-12-03T08:26:50.428Z,2.20
2022-12-03T08:29:20.881Z,2.20
2022-12-03T08:31:52.207Z,2.10
2022-12-03T08:34:24.365Z,2.00
2022-12-03T08:36:57.887Z,2.10
2022-12-03T08:39:33.335Z,2.03
2022-12-03T08:42:30.982Z,2.37
2022-12-03T08:45:20.447Z,1.80
2022-12-03T08:47:49.100Z,2.53
2022-12-03T08:50:28.640Z,2.23
2022-12-03T08:53:01.771Z,2.60
2022-12-03T08:55:36.073Z,1.93
2022-12-03T08:58:20.550Z,2.37
2022-12-03T09:00:49.396Z,1.97
2022-12-03T09:03:20.677Z,2.10
2022-12-03T09:05:49.453Z,2.20
2022-12-03T09:08:18.140Z,2.70
2022-12-03T09:10:46.833Z,2.40
2022-12-03T09:13:16.849Z,2.90
2022-12-03T09:15:45.469Z,3.03
2022-12-03T09:18:14.785Z,2.50
2022-12-03T09:20:44.490Z,2.60
2022-12-03T09:23:13.010Z,2.10
2022-12-03T09:25:41.619Z,2.20
2022-12-03T09:28:10.504Z,1.80
2022-12-03T09:30:40.496Z,2.57
2022-12-03T09:33:10.022Z,2.17
2022-12-03T09:35:38.749Z,2.40
2022-12-03T09:38:07.235Z,2.50
2022-12-03T09:40:36.115Z,2.37
2022-12-03T09:43:06.438Z,2.40
2022-12-03T09:45:36.212Z,2.33
2022-12-03T09:48:06.585Z,3.23
2022-12-03T09:50:35.442Z,2.63
2022-12-03T09:53:04.920Z,2.43
2022-12-03T09:55:33.822Z,3.00
2022-12-03T09:58:02.543Z,2.60
2022-12-03T10:00:32.454Z,2.30
2022-12-03T10:03:05.897Z,2.77
2022-12-03T10:05:36.371Z,2.70
2022-12-03T10:08:07.581Z,2.60
2022-12-03T10:10:36.864Z,2.80
2022-12-03T10:13:06.122Z,2.77
2022-12-03T10:15:34.798Z,3.30
2022-12-03T10:18:14.960Z,3.20
2022-12-03T10:20:45.079Z,2.87
2022-12-03T10:23:21.500Z,3.67
2022-12-03T10:25:55.111Z,3.47
2022-12-03T10:28:32.774Z,4.73
2022-12-03T10:31:03.102Z,2.90
2022-12-03T10:33:34.449Z,4.33
2022-12-03T10:36:25.948Z,3.27
2022-12-03T10:39:12.975Z,2.27
2022-12-03T10:41:42.560Z,4.00
2022-12-03T10:44:19.207Z,2.30
2022-12-03T10:47:06.272Z,2.37
2022-12-03T10:49:35.099Z,2.73
2022-12-03T10:52:05.431Z,2.97
2022-12-03T10:54:36.115Z,2.30
2022-12-03T10:57:05.087Z,2.20
2022-12-03T10:59:35.364Z,2.13
2022-12-03T11:02:05.715Z,2.30
2022-12-03T11:04:35.777Z,1.90
2022-12-03T11:07:16.127Z,1.97
2022-12-03T11:09:46.668Z,2.03
2022-12-03T11:12:21.032Z,2.37
2022-12-03T11:15:06.675Z,1.90
2022-12-03T11:17:43.398Z,1.83
2022-12-03T11:20:30.534Z,2.07
2022-12-03T11:23:01.031Z,2.07
2022-12-03T11:25:49.672Z,1.90
2022-12-03T11:28:38.832Z,2.10
2022-12-03T11:31:15.148Z,2.10
2022-12-03T11:33:44.778Z,2.20
2022-12-03T11:36:15.582Z,1.97
2022-12-03T11:39:03.179Z,2.20
2022-12-03T11:41:35.893Z,3.07
2022-12-03T11:44:34.487Z,3.57
2022-12-03T11:47:15.201Z,2.80
2022-12-03T11:49:49.150Z,3.17
2022-12-03T11:52:28.239Z,2.73
2022-12-03T11:55:02.935Z,2.30
2022-12-03T11:57:37.623Z,2.00
2022-12-03T12:00:24.888Z,2.40
2022-12-03T12:02:55.654Z,2.00
2022-12-03T12:05:28.572Z,2.20
2022-12-03T12:07:58.217Z,2.40
2022-12-03T12:10:49.470Z,2.70
2022-12-03T12:13:51.244Z,2.87
2022-12-03T12:16:41.526Z,1.80
2022-12-03T12:19:34.937Z,1.90
2022-12-03T12:22:21.610Z,2.33
2022-12-03T12:24:55.206Z,3.20
2022-12-03T12:27:33.567Z,2.50
2022-12-03T12:30:05.893Z,2.67
2022-12-03T12:32:39.545Z,3.20
2022-12-03T12:35:16.979Z,2.07
2022-12-03T12:38:00.079Z,2.60
2022-12-03T12:40:32.386Z,3.23
2022-12-03T12:43:12.024Z,3.60
2022-12-03T12:45:44.537Z,2.60
2022-12-03T12:48:22.167Z,2.23
2022-12-03T12:50:58.419Z,2.73
2022-12-03T12:53:29.254Z,3.43
2022-12-03T12:56:00.558Z,3.13
2022-12-03T12:58:33.625Z,4.47
2022-12-03T13:01:06.967Z,2.93
2022-12-03T13:03:40.620Z,2.40
2022-12-03T13:06:16.276Z,1.80
2022-12-03T13:08:46.971Z,2.70
2022-12-03T13:11:34.581Z,3.73
2022-12-03T13:14:11.953Z,3.43
2022-12-03T13:16:40.854Z,3.47
2022-12-03T13:19:21.633Z,2.70
2022-12-03T13:21:51.100Z,3.00
2022-12-03T13:24:33.393Z,2.53
2022-12-03T13:27:21.793Z,2.43
2022-12-03T13:29:54.823Z,2.33
2022-12-03T13:32:30.932Z,2.30
2022-12-03T13:35:08.965Z,5.43
2022-12-03T13:37:39.286Z,3.23
2022-12-03T13:40:19.637Z,3.50
2022-12-03T13:42:48.640Z,3.53
2022-12-03T13:45:42.819Z,3.90
2022-12-03T13:48:21.657Z,2.90
2022-12-03T13:50:50.720Z,2.40
2022-12-03T13:53:40.240Z,3.47
2022-12-03T13:56:27.300Z,2.80
2022-12-03T13:58:56.167Z,3.40
2022-12-03T14:01:26.161Z,6.07
2022-12-03T14:03:57.348Z,5.97
2022-12-03T14:06:25.817Z,4.70
2022-12-03T14:08:54.408Z,5.00
2022-12-03T14:11:40.295Z,4.03
2022-12-03T14:14:09.139Z,3.67
2022-12-03T14:16:39.084Z,4.40
2022-12-03T14:19:07.758Z,5.00
2022-12-03T14:21:36.351Z,6.00
2022-12-03T14:24:05.421Z,6.27
2022-12-03T14:26:34.963Z,5.63
2022-12-03T14:29:08.534Z,6.83
2022-12-03T14:31:38.984Z,18.47
2022-12-03T14:34:07.457Z,21.30
2022-12-03T14:36:35.950Z,13.13
2022-12-03T14:39:04.520Z,9.37
2022-12-03T14:41:50.295Z,7.13
2022-12-03T14:44:21.919Z,5.53
2022-12-03T14:46:56.892Z,4.97
2022-12-03T14:49:25.941Z,4.60
2022-12-03T14:51:54.801Z,3.60
2022-12-03T14:54:24.375Z,3.10
2022-12-03T14:56:52.859Z,4.07
2022-12-03T14:59:26.025Z,3.83
2022-12-03T15:01:57.950Z,3.93
2022-12-03T15:04:26.995Z,3.90
2022-12-03T15:06:55.517Z,3.33
2022-12-03T15:09:24.283Z,3.20
2022-12-03T15:11:53.442Z,3.53
2022-12-03T15:14:23.746Z,3.57
2022-12-03T15:16:52.311Z,4.00
2022-12-03T15:19:22.198Z,4.43
2022-12-03T15:21:50.653Z,4.00
2022-12-03T15:24:19.278Z,3.87
2022-12-03T15:26:47.754Z,4.17
2022-12-03T15:29:16.226Z,4.03
2022-12-03T15:31:44.830Z,4.43
2022-12-03T15:34:18.755Z,6.23
2022-12-03T15:36:53.116Z,4.60
2022-12-03T15:39:22.029Z,6.33
2022-12-03T15:41:50.497Z,7.37
2022-12-03T15:44:19.116Z,3.73
2022-12-03T15:46:47.624Z,3.30
2022-12-03T15:49:16.150Z,5.17
2022-12-03T15:51:44.624Z,4.17
2022-12-03T15:54:14.523Z,3.33
2022-12-03T15:56:43.046Z,3.27
2022-12-03T15:59:13.082Z,3.60
2022-12-03T16:01:41.712Z,3.90
2022-12-03T16:04:10.258Z,3.70
2022-12-03T16:06:38.790Z,3.67
2022-12-03T16:09:07.262Z,3.43
2022-12-03T16:11:37.127Z,4.60
2022-12-03T16:14:05.665Z,4.10
2022-12-03T16:16:34.219Z,3.83
2022-12-03T16:19:02.751Z,6.47
2022-12-03T16:21:34.775Z,4.70
2022-12-03T16:24:09.274Z,4.70
2022-12-03T16:26:40.102Z,4.40
2022-12-03T16:29:08.653Z,4.27
2022-12-03T16:31:37.155Z,3.37
2022-12-03T16:34:05.898Z,6.27
2022-12-03T16:36:34.372Z,4.47
2022-12-03T16:39:02.910Z,3.90
2022-12-03T16:41:31.449Z,11.50
2022-12-03T16:44:02.584Z,23.43
2022-12-03T16:46:31.420Z,23.20
2022-12-03T16:49:00.279Z,18.00
2022-12-03T16:51:30.359Z,14.10
2022-12-03T16:53:58.929Z,10.23
2022-12-03T16:56:27.446Z,8.40
2022-12-03T16:58:55.907Z,7.53
2022-12-03T17:01:25.880Z,8.10
2022-12-03T17:03:55.199Z,6.90
2022-12-03T17:06:23.937Z,5.83
2022-12-03T17:08:52.466Z,4.90
2022-12-03T17:11:21.079Z,6.53
2022-12-03T17:13:49.631Z,4.70
2022-12-03T17:16:19.101Z,4.20
2022-12-03T17:18:49.113Z,4.20
2022-12-03T17:21:18.065Z,5.17
2022-12-03T17:23:48.923Z,4.03
2022-12-03T17:26:17.841Z,3.70
2022-12-03T17:28:46.438Z,3.53
2022-12-03T17:31:15.144Z,3.67
2022-12-03T17:33:43.643Z,3.50
2022-12-03T17:36:13.570Z,3.80
2022-12-03T17:38:42.059Z,5.73
2022-12-03T17:41:10.520Z,5.10
2022-12-03T17:43:39.021Z,4.43
2022-12-03T17:46:07.788Z,5.20
2022-12-03T17:48:36.957Z,5.53
2022-12-03T17:51:05.761Z,4.50
2022-12-03T17:53:35.694Z,4.43
2022-12-03T17:56:05.247Z,4.17
2022-12-03T17:58:33.710Z,3.70
2022-12-03T18:01:03.238Z,3.10
2022-12-03T18:03:32.122Z,3.27
2022-12-03T18:06:00.770Z,2.47
2022-12-03T18:08:29.659Z,3.10
2022-12-03T18:10:59.624Z,2.77
2022-12-03T18:13:28.227Z,3.00
2022-12-03T18:15:56.736Z,2.97
2022-12-03T18:18:25.348Z,2.70
2022-12-03T18:20:54.620Z,2.60
2022-12-03T18:23:23.145Z,2.50
2022-12-03T18:25:51.661Z,2.70
2022-12-03T18:28:21.539Z,2.40
2022-12-03T18:30:52.666Z,2.30
2022-12-03T18:33:23.396Z,2.80
2022-12-03T18:35:55.418Z,2.40
2022-12-03T18:38:29.431Z,2.50
2022-12-03T18:40:58.824Z,3.37
2022-12-03T18:43:29.237Z,3.23
2022-12-03T18:45:57.735Z,2.60
2022-12-03T18:48:26.635Z,3.20
2022-12-03T18:50:56.494Z,3.10
2022-12-03T18:53:25.057Z,3.30
2022-12-03T18:55:53.577Z,2.90
2022-12-03T18:58:22.125Z,3.07
2022-12-03T19:00:52.068Z,3.03
2022-12-03T19:03:22.300Z,3.03
2022-12-03T19:05:51.103Z,2.93
2022-12-03T19:08:20.923Z,2.70
2022-12-03T19:10:57.803Z,3.13
2022-12-03T19:13:27.399Z,2.60
2022-12-03T19:15:57.402Z,2.30
2022-12-03T19:18:26.161Z,2.27
2022-12-03T19:20:55.154Z,2.40
2022-12-03T19:23:23.650Z,2.50
2022-12-03T19:26:00.106Z,2.27
2022-12-03T19:28:29.652Z,2.87
2022-12-03T19:31:01.034Z,2.63
2022-12-03T19:33:33.654Z,1.90
2022-12-03T19:36:02.930Z,2.20
2022-12-03T19:38:31.603Z,2.60
2022-12-03T19:41:01.573Z,3.00
2022-12-03T19:43:31.815Z,2.43
2022-12-03T19:46:05.800Z,2.30
2022-12-03T19:48:35.009Z,3.00
2022-12-03T19:51:32.387Z,2.50
2022-12-03T19:53:55.734Z,3.53
2022-12-03T19:56:24.395Z,2.90
2022-12-03T19:58:56.812Z,3.00
2022-12-03T20:01:29.442Z,2.20
2022-12-03T20:04:01.340Z,2.67
2022-12-03T20:06:33.075Z,2.40
2022-12-03T20:09:03.927Z,2.30
2022-12-03T20:11:34.428Z,2.60
2022-12-03T20:14:04.759Z,2.87
2022-12-03T20:16:35.399Z,2.43
2022-12-03T20:19:06.331Z,2.47
2022-12-03T20:21:36.453Z,2.60
2022-12-03T20:24:05.364Z,2.57
2022-12-03T20:26:34.231Z,2.50
2022-12-03T20:29:03.172Z,2.60
2022-12-03T20:31:32.827Z,2.90
2022-12-03T20:34:04.263Z,3.30
2022-12-03T20:36:35.355Z,3.47
2022-12-03T20:39:06.235Z,3.63
2022-12-03T20:41:36.999Z,2.67
2022-12-03T20:44:07.636Z,2.07
2022-12-03T20:46:36.937Z,2.07
2022-12-03T20:49:06.953Z,2.50
2022-12-03T20:51:35.582Z,1.83
2022-12-03T20:54:04.056Z,2.37
2022-12-03T20:56:34.845Z,1.87
2022-12-03T20:59:05.000Z,1.80
2022-12-03T21:01:34.479Z,1.97
2022-12-03T21:04:04.799Z,2.03
2022-12-03T21:06:36.273Z,2.10
2022-12-03T21:09:07.526Z,2.30
2022-12-03T21:11:39.169Z,2.40
2022-12-03T21:14:07.868Z,2.43
2022-12-03T21:17:07.158Z,2.43
2022-12-03T21:19:27.946Z,2.10
2022-12-03T21:21:57.934Z,2.20
2022-12-03T21:24:26.712Z,2.03
2022-12-03T21:26:55.316Z,2.10
2022-12-03T21:29:24.945Z,2.00
2022-12-03T21:31:53.371Z,1.90
2022-12-03T21:34:21.865Z,1.90
2022-12-03T21:36:50.352Z,1.90
2022-12-03T21:39:20.608Z,1.97
2022-12-03T21:42:33.860Z,2.20
2022-12-03T21:44:38.615Z,1.80
2022-12-03T21:47:11.639Z,2.20
2022-12-03T21:49:43.287Z,2.27
2022-12-03T21:52:11.840Z,2.77
2022-12-03T21:54:41.758Z,1.87
2022-12-03T21:57:10.474Z,2.33
2022-12-03T21:59:38.938Z,1.77
2022-12-03T22:02:07.914Z,2.30
2022-12-03T22:04:36.635Z,2.07
2022-12-03T22:07:05.456Z,2.13
2022-12-03T22:09:34.472Z,2.30
2022-12-03T22:12:04.388Z,2.50
2022-12-03T22:14:33.002Z,2.40
2022-12-03T22:17:01.511Z,2.63
2022-12-03T22:19:30.191Z,2.20
2022-12-03T22:21:58.802Z,2.00
2022-12-03T22:24:27.313Z,2.23
2022-12-03T22:26:55.985Z,2.10
2022-12-03T22:29:25.830Z,2.27
2022-12-03T22:31:54.297Z,2.40
2022-12-03T22:34:23.022Z,2.20
2022-12-03T22:36:51.463Z,1.80
2022-12-03T22:39:20.040Z,2.50
2022-12-03T22:41:48.622Z,2.10
2022-12-03T22:44:17.101Z,2.60
2022-12-03T22:46:47.013Z,2.27
2022-12-03T22:49:15.778Z,2.17
2022-12-03T22:51:46.628Z,2.17
2022-12-03T22:54:18.306Z,2.20
2022-12-03T22:56:50.900Z,2.70
2022-12-03T22:59:21.660Z,2.13
2022-12-03T23:01:51.613Z,2.53
2022-12-03T23:04:20.183Z,2.10
2022-12-03T23:06:48.777Z,2.00
2022-12-03T23:09:18.034Z,2.20
2022-12-03T23:11:46.752Z,2.40
2022-12-03T23:14:15.380Z,2.30
2022-12-03T23:16:43.917Z,2.43
2022-12-03T23:19:14.777Z,2.10
2022-12-03T23:21:44.131Z,2.10
2022-12-03T23:24:12.672Z,2.53
2022-12-03T23:26:41.220Z,2.00
2022-12-03T23:29:09.719Z,2.50
2022-12-03T23:31:38.416Z,2.47
2022-12-03T23:34:07.403Z,2.70
2022-12-03T23:36:37.461Z,2.60
2022-12-03T23:39:06.162Z,2.00
2022-12-03T23:41:34.658Z,2.37
2022-12-03T23:44:03.172Z,2.13
2022-12-03T23:46:31.741Z,2.03
2022-12-03T23:49:01.185Z,2.20
2022-12-03T23:51:29.762Z,2.10
2022-12-03T23:53:59.706Z,2.27
2022-12-03T23:56:30.730Z,1.97
2022-12-03T23:59:00.169Z,2.10
